createdAt,value
2024-04-08T00:00:54.977Z,501.00
2024-04-08T00:01:54.982Z,504.00
2024-04-08T00:03:09.682Z,504.00
2024-04-08T00:03:54.982Z,504.00
2024-04-08T00:04:55.011Z,502.00
2024-04-08T00:05:54.991Z,504.00
2024-04-08T00:06:54.993Z,503.00
2024-04-08T00:07:54.996Z,501.00
2024-04-08T00:08:54.997Z,500.00
2024-04-08T00:09:54.997Z,503.00
2024-04-08T00:10:54.998Z,501.00
2024-04-08T00:11:55.003Z,504.00
2024-04-08T00:12:55.009Z,504.00
2024-04-08T00:13:55.030Z,504.00
2024-04-08T00:14:55.036Z,506.00
2024-04-08T00:15:55.016Z,507.00
2024-04-08T00:16:55.023Z,507.00
2024-04-08T00:17:55.040Z,508.00
2024-04-08T00:18:57.681Z,507.00
2024-04-08T00:19:55.077Z,508.00
2024-04-08T00:20:55.025Z,512.00
2024-04-08T00:21:55.024Z,509.00
2024-04-08T00:22:55.022Z,508.00
2024-04-08T00:23:55.028Z,505.00
2024-04-08T00:25:16.040Z,503.00
2024-04-08T00:25:55.036Z,504.00
2024-04-08T00:26:55.036Z,504.00
2024-04-08T00:28:09.693Z,505.00
2024-04-08T00:28:55.035Z,506.00
2024-04-08T00:29:55.035Z,507.00
2024-04-08T00:31:21.189Z,509.00
2024-04-08T00:31:55.046Z,508.00
2024-04-08T00:32:55.110Z,509.00
2024-04-08T00:33:55.045Z,509.00
2024-04-08T00:34:55.053Z,510.00
2024-04-08T00:35:55.049Z,509.00
2024-04-08T00:36:55.070Z,509.00
2024-04-08T00:37:55.061Z,506.00
2024-04-08T00:38:55.055Z,509.00
2024-04-08T00:39:55.071Z,514.00
2024-04-08T00:40:55.092Z,513.00
2024-04-08T00:41:55.128Z,514.00
2024-04-08T00:42:55.161Z,513.00
2024-04-08T00:43:55.184Z,514.00
2024-04-08T00:44:55.202Z,514.00
2024-04-08T00:45:55.232Z,514.00
2024-04-08T00:46:55.240Z,514.00
2024-04-08T00:47:55.390Z,515.00
2024-04-08T00:48:55.260Z,514.00
2024-04-08T00:50:09.700Z,514.00
2024-04-08T00:50:55.379Z,512.00
2024-04-08T00:51:55.376Z,511.00
2024-04-08T00:52:55.420Z,512.00
2024-04-08T00:53:55.434Z,508.00
2024-04-08T00:54:55.454Z,505.00
2024-04-08T00:56:27.230Z,506.00
2024-04-08T00:56:55.479Z,508.00
2024-04-08T00:57:55.482Z,511.00
2024-04-08T00:58:55.486Z,512.00
2024-04-08T00:59:55.529Z,509.00
2024-04-08T01:00:55.491Z,508.00
2024-04-08T01:01:55.520Z,508.00
2024-04-08T01:02:55.506Z,507.00
2024-04-08T01:03:55.504Z,507.00
2024-04-08T01:04:55.524Z,507.00
2024-04-08T01:05:55.512Z,509.00
2024-04-08T01:06:55.506Z,509.00
2024-04-08T01:07:55.510Z,511.00
2024-04-08T01:08:55.530Z,515.00
2024-04-08T01:09:55.515Z,516.00
2024-04-08T01:10:55.526Z,517.00
2024-04-08T01:11:55.513Z,522.00
2024-04-08T01:12:55.545Z,521.00
2024-04-08T01:13:55.524Z,519.00
2024-04-08T01:14:55.529Z,516.00
2024-04-08T01:15:55.532Z,515.00
2024-04-08T01:16:55.526Z,514.00
2024-04-08T01:18:10.232Z,513.00
2024-04-08T01:18:55.520Z,513.00
2024-04-08T01:19:55.524Z,514.00
2024-04-08T01:21:16.545Z,513.00
2024-04-08T01:21:55.540Z,512.00
2024-04-08T01:22:55.549Z,511.00
2024-04-08T01:24:16.550Z,511.00
2024-04-08T01:24:55.541Z,513.00
2024-04-08T01:25:55.542Z,515.00
2024-04-08T01:26:55.552Z,514.00
2024-04-08T01:27:55.542Z,514.00
2024-04-08T01:28:55.547Z,512.00
2024-04-08T01:29:55.557Z,511.00
2024-04-08T01:30:55.584Z,511.00
2024-04-08T01:31:55.554Z,510.00
2024-04-08T01:32:55.559Z,509.00
2024-04-08T01:33:55.597Z,508.00
2024-04-08T01:34:55.558Z,508.00
2024-04-08T01:35:55.558Z,510.00
2024-04-08T01:36:55.562Z,510.00
2024-04-08T01:37:55.565Z,512.00
2024-04-08T01:38:55.560Z,512.00
2024-04-08T01:39:55.559Z,512.00
2024-04-08T01:40:55.556Z,513.00
2024-04-08T01:41:55.572Z,511.00
2024-04-08T01:43:10.226Z,511.00
2024-04-08T01:43:55.564Z,513.00
2024-04-08T01:44:55.565Z,511.00
2024-04-08T01:46:10.221Z,508.00
2024-04-08T01:46:55.572Z,507.00
2024-04-08T01:47:55.643Z,507.00
2024-04-08T01:49:10.228Z,505.00
2024-04-08T01:49:55.575Z,503.00
2024-04-08T01:50:55.571Z,504.00
2024-04-08T01:51:55.579Z,504.00
2024-04-08T01:52:55.591Z,503.00
2024-04-08T01:53:55.575Z,505.00
2024-04-08T01:54:55.584Z,506.00
2024-04-08T01:55:55.581Z,508.00
2024-04-08T01:56:55.584Z,508.00
2024-04-08T01:57:55.642Z,506.00
2024-04-08T01:58:55.582Z,503.00
2024-04-08T01:59:55.592Z,505.00
2024-04-08T02:00:55.586Z,504.00
2024-04-08T02:01:55.595Z,504.00
2024-04-08T02:02:55.603Z,506.00
2024-04-08T02:03:55.599Z,507.00
2024-04-08T02:05:02.238Z,507.00
2024-04-08T02:05:55.606Z,508.00
2024-04-08T02:06:55.618Z,510.00
2024-04-08T02:07:56.232Z,508.00
2024-04-08T02:08:55.612Z,508.00
2024-04-08T02:09:55.616Z,506.00
2024-04-08T02:11:10.231Z,505.00
2024-04-08T02:11:55.825Z,507.00
2024-04-08T02:12:55.829Z,507.00
2024-04-08T02:14:10.743Z,506.00
2024-04-08T02:14:55.846Z,509.00
2024-04-08T02:15:55.832Z,507.00
2024-04-08T02:17:16.842Z,506.00
2024-04-08T02:17:55.933Z,508.00
2024-04-08T02:18:55.848Z,508.00
2024-04-08T02:19:55.854Z,507.00
2024-04-08T02:20:55.850Z,508.00
2024-04-08T02:21:55.858Z,507.00
2024-04-08T02:22:55.852Z,506.00
2024-04-08T02:23:55.863Z,502.00
2024-04-08T02:24:55.880Z,502.00
2024-04-08T02:25:55.862Z,503.00
2024-04-08T02:26:55.887Z,504.00
2024-04-08T02:27:55.863Z,504.00
2024-04-08T02:28:56.739Z,503.00
2024-04-08T02:29:56.267Z,507.00
2024-04-08T02:30:55.894Z,505.00
2024-04-08T02:31:55.888Z,505.00
2024-04-08T02:32:55.950Z,508.00
2024-04-08T02:33:55.891Z,509.00
2024-04-08T02:34:55.886Z,509.00
2024-04-08T02:35:55.903Z,508.00
2024-04-08T02:36:55.897Z,505.00
2024-04-08T02:37:55.887Z,502.00
2024-04-08T02:39:16.904Z,503.00
2024-04-08T02:39:55.908Z,504.00
2024-04-08T02:40:55.906Z,504.00
2024-04-08T02:42:23.746Z,505.00
2024-04-08T02:42:55.910Z,506.00
2024-04-08T02:43:55.913Z,505.00
2024-04-08T02:44:55.925Z,506.00
2024-04-08T02:45:55.917Z,507.00
2024-04-08T02:46:55.923Z,508.00
2024-04-08T02:47:56.022Z,509.00
2024-04-08T02:48:55.920Z,509.00
2024-04-08T02:49:55.932Z,506.00
2024-04-08T02:50:55.918Z,508.00
2024-04-08T02:51:55.956Z,507.00
2024-04-08T02:52:55.936Z,508.00
2024-04-08T02:53:55.940Z,509.00
2024-04-08T02:54:55.951Z,510.00
2024-04-08T02:55:55.932Z,512.00
2024-04-08T02:56:55.941Z,514.00
2024-04-08T02:57:59.263Z,518.00
2024-04-08T02:58:55.938Z,517.00
2024-04-08T02:59:55.948Z,516.00
2024-04-08T03:00:55.949Z,513.00
2024-04-08T03:01:55.948Z,513.00
2024-04-08T03:02:55.955Z,510.00
2024-04-08T03:04:02.750Z,506.00
2024-04-08T03:04:55.950Z,503.00
2024-04-08T03:05:55.948Z,500.00
2024-04-08T03:06:55.953Z,499.00
2024-04-08T03:07:55.960Z,497.00
2024-04-08T03:08:56.041Z,498.00
2024-04-08T03:10:16.964Z,497.00
2024-04-08T03:10:55.955Z,498.00
2024-04-08T03:11:56.025Z,499.00
2024-04-08T03:12:55.970Z,503.00
2024-04-08T03:13:55.960Z,505.00
2024-04-08T03:14:55.995Z,507.00
2024-04-08T03:15:55.972Z,505.00
2024-04-08T03:16:55.968Z,505.00
2024-04-08T03:17:55.973Z,505.00
2024-04-08T03:18:55.971Z,505.00
2024-04-08T03:19:55.997Z,504.00
2024-04-08T03:20:55.969Z,504.00
2024-04-08T03:21:55.972Z,503.00
2024-04-08T03:22:55.972Z,504.00
2024-04-08T03:23:55.975Z,503.00
2024-04-08T03:24:55.971Z,502.00
2024-04-08T03:25:55.977Z,503.00
2024-04-08T03:26:55.984Z,506.00
2024-04-08T03:27:55.986Z,504.00
2024-04-08T03:29:10.766Z,503.00
2024-04-08T03:29:56.007Z,504.00
2024-04-08T03:30:55.989Z,505.00
2024-04-08T03:32:02.766Z,506.00
2024-04-08T03:32:56.019Z,510.00
2024-04-08T03:33:55.988Z,510.00
2024-04-08T03:34:56.021Z,507.00
2024-04-08T03:35:56.078Z,506.00
2024-04-08T03:36:56.041Z,506.00
2024-04-08T03:37:55.998Z,509.00
2024-04-08T03:38:56.029Z,510.00
2024-04-08T03:39:56.004Z,511.00
2024-04-08T03:40:56.007Z,510.00
2024-04-08T03:41:56.015Z,511.00
2024-04-08T03:42:56.013Z,514.00
2024-04-08T03:43:56.007Z,517.00
2024-04-08T03:44:56.068Z,516.00
2024-04-08T03:45:56.015Z,515.00
2024-04-08T03:46:56.025Z,515.00
2024-04-08T03:47:56.083Z,514.00
2024-04-08T03:48:56.020Z,515.00
2024-04-08T03:49:56.042Z,514.00
2024-04-08T03:50:56.059Z,512.00
2024-04-08T03:51:56.020Z,514.00
2024-04-08T03:52:56.024Z,514.00
2024-04-08T03:53:56.091Z,514.00
2024-04-08T03:54:56.050Z,515.00
2024-04-08T03:55:56.028Z,515.00
2024-04-08T03:56:56.050Z,517.00
2024-04-08T03:57:56.029Z,519.00
2024-04-08T03:58:56.036Z,518.00
2024-04-08T04:00:20.379Z,517.00
2024-04-08T04:00:56.063Z,514.00
2024-04-08T04:01:56.041Z,515.00
2024-04-08T04:02:56.063Z,514.00
2024-04-08T04:03:56.043Z,517.00
2024-04-08T04:04:56.050Z,518.00
2024-04-08T04:05:56.091Z,515.00
2024-04-08T04:06:56.055Z,516.00
2024-04-08T04:07:56.059Z,515.00
2024-04-08T04:08:56.081Z,515.00
2024-04-08T04:09:56.057Z,514.00
2024-04-08T04:10:56.070Z,512.00
2024-04-08T04:11:56.136Z,512.00
2024-04-08T04:12:56.065Z,514.00
2024-04-08T04:13:56.064Z,513.00
2024-04-08T04:14:56.109Z,511.00
2024-04-08T04:16:03.232Z,512.00
2024-04-08T04:17:03.230Z,509.00
2024-04-08T04:18:03.323Z,510.00
2024-04-08T04:19:03.235Z,511.00
2024-04-08T04:20:03.266Z,511.00
2024-04-08T04:21:03.247Z,511.00
2024-04-08T04:22:17.860Z,511.00
2024-04-08T04:23:03.457Z,512.00
2024-04-08T04:24:03.509Z,511.00
2024-04-08T04:25:11.350Z,511.00
2024-04-08T04:26:03.490Z,511.00
2024-04-08T04:27:03.515Z,511.00
2024-04-08T04:28:27.347Z,510.00
2024-04-08T04:29:03.501Z,508.00
2024-04-08T04:30:03.532Z,506.00
2024-04-08T04:31:31.681Z,521.00
2024-04-08T04:32:10.686Z,522.00
2024-04-08T04:33:10.693Z,516.00
2024-04-08T04:34:31.691Z,514.00
2024-04-08T04:35:10.713Z,511.00
2024-04-08T04:36:10.692Z,508.00
2024-04-08T04:37:10.706Z,506.00
2024-04-08T04:38:10.700Z,507.00
2024-04-08T04:39:10.723Z,505.00
2024-04-08T04:40:10.723Z,507.00
2024-04-08T04:41:10.704Z,509.00
2024-04-08T04:42:10.704Z,509.00
2024-04-08T04:43:10.701Z,510.00
2024-04-08T04:44:10.702Z,510.00
2024-04-08T04:45:10.723Z,511.00
2024-04-08T04:46:10.723Z,511.00
2024-04-08T04:47:10.719Z,514.00
2024-04-08T04:48:10.744Z,516.00
2024-04-08T04:49:10.712Z,517.00
2024-04-08T04:50:10.747Z,517.00
2024-04-08T04:51:10.720Z,516.00
2024-04-08T04:52:10.719Z,519.00
2024-04-08T04:53:10.721Z,518.00
2024-04-08T04:54:10.766Z,516.00
2024-04-08T04:55:10.741Z,515.00
2024-04-08T04:56:31.731Z,514.00
2024-04-08T04:57:10.726Z,513.00
2024-04-08T04:58:10.727Z,511.00
2024-04-08T04:59:31.740Z,510.00
2024-04-08T05:00:10.768Z,511.00
2024-04-08T05:01:10.732Z,509.00
2024-04-08T05:02:14.145Z,510.00
2024-04-08T05:03:11.742Z,509.00
2024-04-08T05:04:10.751Z,511.00
2024-04-08T05:05:10.827Z,509.00
2024-04-08T05:06:10.765Z,510.00
2024-04-08T05:07:10.759Z,510.00
2024-04-08T05:08:10.769Z,509.00
2024-04-08T05:09:10.752Z,507.00
2024-04-08T05:10:10.764Z,505.00
2024-04-08T05:11:10.859Z,507.00
2024-04-08T05:12:10.775Z,509.00
2024-04-08T05:13:10.773Z,511.00
2024-04-08T05:14:10.780Z,510.00
2024-04-08T05:15:10.787Z,510.00
2024-04-08T05:16:10.826Z,511.00
2024-04-08T05:17:10.775Z,511.00
2024-04-08T05:18:10.888Z,509.00
2024-04-08T05:19:10.777Z,507.00
2024-04-08T05:20:10.794Z,509.00
2024-04-08T05:21:25.302Z,509.00
2024-04-08T05:22:10.908Z,508.00
2024-04-08T05:23:10.929Z,506.00
2024-04-08T05:24:25.816Z,503.00
2024-04-08T05:25:10.970Z,504.00
2024-04-08T05:26:10.960Z,507.00
2024-04-08T05:27:37.320Z,508.00
2024-04-08T05:28:10.969Z,510.00
2024-04-08T05:29:10.959Z,522.00
2024-04-08T05:30:11.353Z,542.00
2024-04-08T05:31:10.975Z,561.00
2024-04-08T05:32:11.034Z,604.00
2024-04-08T05:33:11.133Z,603.00
2024-04-08T05:34:11.071Z,602.00
2024-04-08T05:35:11.349Z,605.00
2024-04-08T05:36:11.136Z,640.00
2024-04-08T05:37:11.170Z,634.00
2024-04-08T05:38:11.218Z,641.00
2024-04-08T05:39:11.268Z,642.00
2024-04-08T05:40:11.306Z,651.00
2024-04-08T05:41:11.817Z,664.00
2024-04-08T05:42:11.833Z,670.00
2024-04-08T05:43:11.464Z,683.00
2024-04-08T05:44:11.530Z,707.00
2024-04-08T05:45:11.714Z,730.00
2024-04-08T05:46:26.316Z,729.00
2024-04-08T05:47:11.825Z,725.00
2024-04-08T05:48:11.690Z,725.00
2024-04-08T05:49:11.631Z,738.00
2024-04-08T05:50:11.635Z,768.00
2024-04-08T05:51:11.641Z,773.00
2024-04-08T05:52:43.331Z,774.00
2024-04-08T05:53:11.644Z,774.00
2024-04-08T05:54:11.642Z,788.00
2024-04-08T05:55:11.642Z,786.00
2024-04-08T05:56:11.667Z,796.00
2024-04-08T05:57:11.660Z,799.00
2024-04-08T05:58:11.645Z,799.00
2024-04-08T05:59:11.662Z,812.00
2024-04-08T06:00:11.652Z,801.00
2024-04-08T06:01:11.676Z,787.00
2024-04-08T06:02:11.663Z,767.00
2024-04-08T06:03:11.655Z,834.00
2024-04-08T06:04:11.656Z,846.00
2024-04-08T06:05:11.654Z,862.00
2024-04-08T06:06:11.656Z,867.00
2024-04-08T06:07:11.663Z,880.00
2024-04-08T06:08:11.670Z,889.00
2024-04-08T06:09:11.674Z,887.00
2024-04-08T06:10:11.673Z,887.00
2024-04-08T06:11:11.723Z,943.00
2024-04-08T06:12:11.716Z,947.00
2024-04-08T06:13:11.702Z,967.00
2024-04-08T06:14:18.327Z,985.00
2024-04-08T06:15:11.691Z,984.00
2024-04-08T06:16:11.680Z,996.00
2024-04-08T06:17:32.677Z,952.00
2024-04-08T06:18:11.909Z,969.00
2024-04-08T06:19:11.673Z,983.00
2024-04-08T06:20:26.343Z,986.00
2024-04-08T06:21:11.841Z,987.00
2024-04-08T06:22:11.674Z,993.00
2024-04-08T06:23:11.691Z,994.00
2024-04-08T06:24:11.681Z,1002.00
2024-04-08T06:25:11.687Z,959.00
2024-04-08T06:26:11.685Z,951.00
2024-04-08T06:27:11.700Z,961.00
2024-04-08T06:28:11.688Z,968.00
2024-04-08T06:29:11.695Z,950.00
2024-04-08T06:30:11.687Z,944.00
2024-04-08T06:31:11.844Z,935.00
2024-04-08T06:32:11.687Z,933.00
2024-04-08T06:33:11.708Z,889.00
2024-04-08T06:34:11.699Z,848.00
2024-04-08T06:35:11.793Z,846.00
2024-04-08T06:36:11.844Z,855.00
2024-04-08T06:37:11.687Z,880.00
2024-04-08T06:38:11.688Z,945.00
2024-04-08T06:39:11.731Z,952.00
2024-04-08T06:40:11.705Z,965.00
2024-04-08T06:41:11.846Z,963.00
2024-04-08T06:42:32.701Z,972.00
2024-04-08T06:43:11.709Z,988.00
2024-04-08T06:44:11.706Z,1003.00
2024-04-08T06:45:26.347Z,993.00
2024-04-08T06:46:11.704Z,990.00
2024-04-08T06:47:11.716Z,1017.00
2024-04-08T06:48:39.349Z,1037.00
2024-04-08T06:49:11.718Z,1042.00
2024-04-08T06:50:11.708Z,1054.00
2024-04-08T06:51:11.775Z,1021.00
2024-04-08T06:52:11.722Z,997.00
2024-04-08T06:53:11.713Z,1013.00
2024-04-08T06:54:11.718Z,1017.00
2024-04-08T06:55:11.724Z,1021.00
2024-04-08T06:56:11.860Z,1025.00
2024-04-08T06:57:11.727Z,1032.00
2024-04-08T06:58:12.059Z,1036.00
2024-04-08T06:59:11.724Z,1031.00
2024-04-08T07:00:11.819Z,1022.00
2024-04-08T07:01:11.755Z,1004.00
2024-04-08T07:02:11.729Z,1008.00
2024-04-08T07:03:11.734Z,986.00
2024-04-08T07:04:11.734Z,987.00
2024-04-08T07:05:11.755Z,980.00
2024-04-08T07:06:11.738Z,938.00
2024-04-08T07:07:26.355Z,928.00
2024-04-08T07:08:15.542Z,900.00
2024-04-08T07:09:12.007Z,894.00
2024-04-08T07:10:26.861Z,892.00
2024-04-08T07:11:12.357Z,855.00
2024-04-08T07:12:12.000Z,866.00
2024-04-08T07:13:47.854Z,873.00
2024-04-08T07:14:12.013Z,778.00
2024-04-08T07:15:12.012Z,770.00
2024-04-08T07:16:12.028Z,712.00
2024-04-08T07:17:12.035Z,718.00
2024-04-08T07:18:12.139Z,707.00
2024-04-08T07:19:12.023Z,668.00
2024-04-08T07:20:12.023Z,667.00
2024-04-08T07:21:12.039Z,665.00
2024-04-08T07:22:12.021Z,657.00
2024-04-08T07:23:12.025Z,650.00
2024-04-08T07:24:12.021Z,643.00
2024-04-08T07:25:12.021Z,638.00
2024-04-08T07:26:12.427Z,638.00
2024-04-08T07:27:12.039Z,646.00
2024-04-08T07:28:12.039Z,649.00
2024-04-08T07:29:12.033Z,653.00
2024-04-08T07:30:12.113Z,659.00
2024-04-08T07:31:12.371Z,702.00
2024-04-08T07:32:12.043Z,704.00
2024-04-08T07:33:12.214Z,722.00
2024-04-08T07:34:12.044Z,730.00
2024-04-08T07:35:14.869Z,748.00
2024-04-08T07:36:12.048Z,775.00
2024-04-08T07:37:12.048Z,786.00
2024-04-08T07:38:26.867Z,789.00
2024-04-08T07:39:13.323Z,793.00
2024-04-08T07:40:12.051Z,835.00
2024-04-08T07:41:30.384Z,846.00
2024-04-08T07:42:12.065Z,853.00
2024-04-08T07:43:12.047Z,852.00
2024-04-08T07:44:12.077Z,853.00
2024-04-08T07:45:12.086Z,853.00
2024-04-08T07:46:12.075Z,845.00
2024-04-08T07:47:12.070Z,844.00
2024-04-08T07:48:12.148Z,850.00
2024-04-08T07:49:12.064Z,855.00
2024-04-08T07:50:12.059Z,858.00
2024-04-08T07:51:12.077Z,864.00
2024-04-08T07:52:12.061Z,865.00
2024-04-08T07:53:12.069Z,828.00
2024-04-08T07:54:12.142Z,719.00
2024-04-08T07:55:12.068Z,805.00
2024-04-08T07:56:12.076Z,776.00
2024-04-08T07:57:18.885Z,844.00
2024-04-08T07:58:12.072Z,858.00
2024-04-08T07:59:12.072Z,880.00
2024-04-08T08:00:12.139Z,887.00
2024-04-08T08:01:12.089Z,884.00
2024-04-08T08:02:12.114Z,886.00
2024-04-08T08:03:33.883Z,888.00
2024-04-08T08:04:12.086Z,862.00
2024-04-08T08:05:12.092Z,871.00
2024-04-08T08:06:40.882Z,880.00
2024-04-08T08:07:12.100Z,880.00
2024-04-08T08:08:12.095Z,881.00
2024-04-08T08:09:12.201Z,882.00
2024-04-08T08:10:12.095Z,887.00
2024-04-08T08:11:12.400Z,889.00
2024-04-08T08:12:12.163Z,890.00
2024-04-08T08:13:12.642Z,887.00
2024-04-08T08:14:12.104Z,884.00
2024-04-08T08:15:12.140Z,887.00
2024-04-08T08:16:12.118Z,880.00
2024-04-08T08:17:12.399Z,874.00
2024-04-08T08:18:12.246Z,865.00
2024-04-08T08:19:12.367Z,812.00
2024-04-08T08:20:12.339Z,828.00
2024-04-08T08:21:12.434Z,762.00
2024-04-08T08:22:12.903Z,733.00
2024-04-08T08:23:12.536Z,727.00
2024-04-08T08:24:12.595Z,724.00
2024-04-08T08:25:27.425Z,705.00
2024-04-08T08:26:12.631Z,655.00
2024-04-08T08:27:12.629Z,644.00
2024-04-08T08:28:12.550Z,627.00
2024-04-08T08:29:12.555Z,611.00
2024-04-08T08:30:12.577Z,584.00
2024-04-08T08:31:36.388Z,584.00
2024-04-08T08:32:12.567Z,586.00
2024-04-08T08:33:12.632Z,579.00
2024-04-08T08:34:33.580Z,574.00
2024-04-08T08:35:12.574Z,566.00
2024-04-08T08:36:12.675Z,616.00
2024-04-08T08:37:12.901Z,605.00
2024-04-08T08:38:12.580Z,595.00
2024-04-08T08:39:12.619Z,583.00
2024-04-08T08:40:12.607Z,574.00
2024-04-08T08:41:12.894Z,590.00
2024-04-08T08:42:12.586Z,587.00
2024-04-08T08:43:12.581Z,593.00
2024-04-08T08:44:12.592Z,677.00
2024-04-08T08:45:12.691Z,737.00
2024-04-08T08:46:12.629Z,784.00
2024-04-08T08:47:12.591Z,814.00
2024-04-08T08:48:12.614Z,829.00
2024-04-08T08:49:12.597Z,843.00
2024-04-08T08:50:15.403Z,875.00
2024-04-08T08:51:12.971Z,888.00
2024-04-08T08:52:12.619Z,893.00
2024-04-08T08:53:15.403Z,909.00
2024-04-08T08:54:12.640Z,932.00
2024-04-08T08:55:12.618Z,980.00
2024-04-08T08:56:33.624Z,1012.00
2024-04-08T08:57:12.680Z,1049.00
2024-04-08T08:58:12.629Z,1065.00
2024-04-08T08:59:33.639Z,1066.00
2024-04-08T09:00:12.668Z,1070.00
2024-04-08T09:01:12.632Z,1073.00
2024-04-08T09:02:12.625Z,1068.00
2024-04-08T09:03:12.699Z,1070.00
2024-04-08T09:04:12.622Z,1069.00
2024-04-08T09:05:12.647Z,1067.00
2024-04-08T09:06:12.773Z,1059.00
2024-04-08T09:07:12.729Z,1055.00
2024-04-08T09:08:12.627Z,1056.00
2024-04-08T09:09:12.842Z,1057.00
2024-04-08T09:10:12.635Z,1062.00
2024-04-08T09:11:12.645Z,1088.00
2024-04-08T09:12:12.701Z,1098.00
2024-04-08T09:13:12.646Z,1009.00
2024-04-08T09:14:12.635Z,984.00
2024-04-08T09:15:12.796Z,967.00
2024-04-08T09:16:12.915Z,970.00
2024-04-08T09:17:12.658Z,984.00
2024-04-08T09:18:12.686Z,1019.00
2024-04-08T09:19:12.679Z,1025.00
2024-04-08T09:20:12.661Z,1025.00
2024-04-08T09:21:30.913Z,1028.00
2024-04-08T09:22:12.656Z,1032.00
2024-04-08T09:23:12.663Z,1048.00
2024-04-08T09:24:27.456Z,1049.00
2024-04-08T09:25:12.688Z,993.00
2024-04-08T09:26:12.939Z,1032.00
2024-04-08T09:27:54.376Z,1030.00
2024-04-08T09:28:13.681Z,934.00
2024-04-08T09:29:12.686Z,845.00
2024-04-08T09:30:12.688Z,857.00
2024-04-08T09:31:12.936Z,880.00
2024-04-08T09:32:12.705Z,887.00
2024-04-08T09:33:12.954Z,897.00
2024-04-08T09:34:12.678Z,958.00
2024-04-08T09:35:12.686Z,972.00
2024-04-08T09:36:13.019Z,978.00
2024-04-08T09:37:12.683Z,989.00
2024-04-08T09:38:12.690Z,994.00
2024-04-08T09:39:12.718Z,995.00
2024-04-08T09:40:12.714Z,1010.00
2024-04-08T09:41:12.938Z,1020.00
2024-04-08T09:42:12.716Z,1028.00
2024-04-08T09:43:14.283Z,1038.00
2024-04-08T09:44:12.709Z,1042.00
2024-04-08T09:45:12.815Z,1036.00
2024-04-08T09:46:23.436Z,1033.00
2024-04-08T09:47:12.704Z,1032.00
2024-04-08T09:48:12.731Z,1023.00
2024-04-08T09:49:23.611Z,1020.00
2024-04-08T09:50:13.911Z,1019.00
2024-04-08T09:51:13.062Z,1019.00
2024-04-08T09:52:27.934Z,1018.00
2024-04-08T09:53:12.958Z,1017.00
2024-04-08T09:54:12.986Z,1017.00
2024-04-08T09:55:12.940Z,1015.00
2024-04-08T09:56:13.002Z,1010.00
2024-04-08T09:57:12.981Z,1004.00
2024-04-08T09:58:12.947Z,1005.00
2024-04-08T09:59:12.954Z,1007.00
2024-04-08T10:00:13.046Z,1013.00
2024-04-08T10:01:12.988Z,1013.00
2024-04-08T10:02:12.956Z,1014.00
2024-04-08T10:03:13.050Z,1018.00
2024-04-08T10:04:12.954Z,1019.00
2024-04-08T10:05:12.953Z,1014.00
2024-04-08T10:06:13.531Z,1016.00
2024-04-08T10:07:13.007Z,1010.00
2024-04-08T10:08:12.980Z,913.00
2024-04-08T10:09:12.990Z,983.00
2024-04-08T10:10:12.961Z,979.00
2024-04-08T10:11:13.983Z,983.00
2024-04-08T10:12:13.039Z,980.00
2024-04-08T10:13:14.553Z,962.00
2024-04-08T10:14:27.949Z,849.00
2024-04-08T10:15:13.092Z,777.00
2024-04-08T10:16:12.969Z,687.00
2024-04-08T10:17:27.938Z,799.00
2024-04-08T10:18:13.132Z,741.00
2024-04-08T10:19:12.983Z,687.00
2024-04-08T10:20:44.094Z,663.00
2024-04-08T10:21:13.535Z,698.00
2024-04-08T10:22:12.980Z,824.00
2024-04-08T10:23:14.943Z,724.00
2024-04-08T10:24:13.018Z,736.00
2024-04-08T10:25:12.991Z,769.00
2024-04-08T10:26:13.459Z,770.00
2024-04-08T10:27:13.999Z,858.00
2024-04-08T10:28:12.995Z,948.00
2024-04-08T10:29:13.000Z,963.00
2024-04-08T10:30:13.094Z,981.00
2024-04-08T10:31:13.008Z,999.00
2024-04-08T10:32:12.995Z,1017.00
2024-04-08T10:33:13.086Z,1033.00
2024-04-08T10:34:13.009Z,1049.00
2024-04-08T10:35:13.000Z,1056.00
2024-04-08T10:36:16.487Z,1061.00
2024-04-08T10:37:13.001Z,1067.00
2024-04-08T10:38:13.014Z,1067.00
2024-04-08T10:39:27.959Z,1068.00
2024-04-08T10:40:13.013Z,1069.00
2024-04-08T10:41:13.018Z,1066.00
2024-04-08T10:42:34.040Z,1061.00
2024-04-08T10:43:13.027Z,1055.00
2024-04-08T10:44:13.026Z,1052.00
2024-04-08T10:45:13.121Z,1049.00
2024-04-08T10:46:13.050Z,1047.00
2024-04-08T10:47:13.041Z,981.00
2024-04-08T10:48:13.178Z,994.00
2024-04-08T10:49:13.026Z,999.00
2024-04-08T10:50:13.061Z,1009.00
2024-04-08T10:51:13.141Z,1005.00
2024-04-08T10:52:13.043Z,1016.00
2024-04-08T10:53:13.038Z,1019.00
2024-04-08T10:54:13.180Z,1023.00
2024-04-08T10:55:13.055Z,1019.00
2024-04-08T10:56:13.064Z,1023.00
2024-04-08T10:57:13.132Z,1023.00
2024-04-08T10:58:13.046Z,1019.00
2024-04-08T10:59:13.040Z,1015.00
2024-04-08T11:00:14.021Z,1013.00
2024-04-08T11:01:13.052Z,1003.00
2024-04-08T11:02:13.053Z,997.00
2024-04-08T11:03:13.138Z,978.00
2024-04-08T11:04:27.970Z,982.00
2024-04-08T11:05:13.058Z,976.00
2024-04-08T11:06:13.163Z,977.00
2024-04-08T11:07:16.001Z,994.00
2024-04-08T11:08:13.077Z,982.00
2024-04-08T11:09:13.101Z,973.00
2024-04-08T11:10:27.976Z,970.00
2024-04-08T11:11:13.088Z,908.00
2024-04-08T11:12:13.567Z,961.00
2024-04-08T11:13:27.978Z,884.00
2024-04-08T11:14:13.080Z,824.00
2024-04-08T11:15:13.147Z,821.00
2024-04-08T11:16:13.475Z,856.00
2024-04-08T11:17:13.082Z,842.00
2024-04-08T11:18:13.137Z,837.00
2024-04-08T11:19:13.088Z,836.00
2024-04-08T11:20:13.094Z,833.00
2024-04-08T11:21:13.147Z,823.00
2024-04-08T11:22:13.094Z,811.00
2024-04-08T11:23:13.095Z,812.00
2024-04-08T11:24:13.280Z,815.00
2024-04-08T11:25:13.104Z,812.00
2024-04-08T11:26:13.109Z,811.00
2024-04-08T11:27:13.146Z,806.00
2024-04-08T11:28:13.111Z,779.00
2024-04-08T11:29:13.112Z,761.00
2024-04-08T11:30:13.172Z,758.00
2024-04-08T11:31:13.139Z,761.00
2024-04-08T11:32:13.128Z,765.00
2024-04-08T11:33:13.212Z,764.00
2024-04-08T11:34:13.120Z,763.00
2024-04-08T11:35:28.094Z,763.00
2024-04-08T11:36:13.154Z,763.00
2024-04-08T11:37:13.128Z,764.00
2024-04-08T11:38:44.007Z,760.00
2024-04-08T11:39:13.155Z,755.00
2024-04-08T11:40:13.234Z,747.00
2024-04-08T11:41:13.163Z,743.00
2024-04-08T11:42:13.239Z,742.00
2024-04-08T11:43:13.159Z,740.00
2024-04-08T11:44:13.255Z,738.00
2024-04-08T11:45:13.213Z,735.00
2024-04-08T11:46:13.392Z,730.00
2024-04-08T11:47:13.150Z,728.00
2024-04-08T11:48:13.224Z,724.00
2024-04-08T11:49:14.026Z,722.00
2024-04-08T11:50:13.145Z,717.00
2024-04-08T11:51:13.188Z,709.00
2024-04-08T11:52:13.177Z,700.00
2024-04-08T11:53:13.151Z,691.00
2024-04-08T11:54:13.198Z,686.00
2024-04-08T11:55:13.150Z,677.00
2024-04-08T11:56:13.156Z,678.00
2024-04-08T11:57:13.237Z,674.00
2024-04-08T11:58:13.244Z,669.00
2024-04-08T11:59:13.179Z,662.00
2024-04-08T12:00:13.188Z,657.00
2024-04-08T12:01:14.630Z,654.00
2024-04-08T12:02:13.166Z,653.00
2024-04-08T12:03:35.022Z,654.00
2024-04-08T12:04:13.180Z,654.00
2024-04-08T12:05:13.182Z,649.00
2024-04-08T12:06:48.496Z,647.00
2024-04-08T12:07:13.183Z,644.00
2024-04-08T12:08:13.186Z,644.00
2024-04-08T12:09:13.328Z,638.00
2024-04-08T12:10:13.316Z,634.00
2024-04-08T12:11:13.440Z,629.00
2024-04-08T12:12:13.416Z,626.00
2024-04-08T12:13:13.417Z,625.00
2024-04-08T12:14:13.434Z,623.00
2024-04-08T12:15:13.467Z,647.00
2024-04-08T12:16:13.465Z,652.00
2024-04-08T12:17:13.483Z,647.00
2024-04-08T12:18:13.530Z,642.00
2024-04-08T12:19:13.494Z,640.00
2024-04-08T12:20:13.502Z,638.00
2024-04-08T12:21:13.635Z,644.00
2024-04-08T12:22:19.040Z,692.00
2024-04-08T12:23:13.664Z,704.00
2024-04-08T12:24:13.849Z,710.00
2024-04-08T12:25:16.494Z,717.00
2024-04-08T12:26:13.819Z,730.00